createdAt,value
2019-04-21T00:00:39.846Z,20.83
2019-04-21T00:03:50.117Z,19.13
2019-04-21T00:07:08.691Z,19.50
2019-04-21T00:10:18.468Z,17.93
2019-04-21T00:13:20.485Z,20.57
2019-04-21T00:16:12.012Z,25.07
2019-04-21T00:19:40.518Z,19.37
2019-04-21T00:22:58.782Z,18.53
2019-04-21T00:26:01.983Z,19.93
2019-04-21T00:29:16.578Z,19.60
2019-04-21T00:32:17.935Z,20.97
2019-04-21T00:35:14.038Z,18.13
2019-04-21T00:38:43.718Z,14.10
2019-04-21T00:41:46.470Z,17.20
2019-04-21T00:44:40.075Z,19.10
2019-04-21T00:47:53.142Z,16.20
2019-04-21T00:51:16.936Z,14.67
2019-04-21T00:54:13.420Z,17.77
2019-04-21T00:57:18.035Z,13.77
2019-04-21T01:00:22.897Z,13.97
2019-04-21T01:03:46.240Z,16.37
2019-04-21T01:06:35.300Z,12.87
2019-04-21T01:09:31.685Z,16.90
2019-04-21T01:13:04.381Z,13.03
2019-04-21T01:15:53.046Z,13.73
2019-04-21T01:18:55.259Z,18.97
2019-04-21T01:21:41.146Z,16.57
2019-04-21T01:24:49.100Z,14.87
2019-04-21T01:28:09.950Z,14.53
2019-04-21T01:31:17.422Z,14.80
2019-04-21T01:34:27.083Z,12.63
2019-04-21T01:37:38.502Z,13.80
2019-04-21T01:40:38.112Z,21.53
2019-04-21T01:43:42.757Z,12.30
2019-04-21T01:46:48.057Z,15.40
2019-04-21T01:49:43.129Z,18.70
2019-04-21T01:53:05.260Z,17.40
2019-04-21T01:56:34.699Z,16.30
2019-04-21T01:59:35.250Z,16.57
2019-04-21T02:02:43.674Z,21.40
2019-04-21T02:06:02.726Z,17.07
2019-04-21T02:09:02.140Z,17.27
2019-04-21T02:12:10.593Z,23.47
2019-04-21T02:15:20.269Z,21.97
2019-04-21T02:18:17.076Z,24.63
2019-04-21T02:21:17.829Z,19.13
2019-04-21T02:24:40.007Z,25.80
2019-04-21T02:27:36.614Z,21.90
2019-04-21T02:30:54.412Z,23.30
2019-04-21T02:34:00.303Z,25.33
2019-04-21T02:37:17.668Z,23.53
2019-04-21T02:43:19.154Z,25.00
2019-04-21T02:49:38.103Z,22.23
2019-04-21T02:52:37.781Z,24.93
2019-04-21T02:55:38.245Z,20.13
2019-04-21T02:59:09.915Z,33.23
2019-04-21T03:02:35.172Z,28.43
2019-04-21T03:11:53.392Z,25.40
2019-04-21T03:18:13.020Z,22.80
2019-04-21T03:24:29.435Z,21.40
2019-04-21T03:27:41.146Z,23.67
2019-04-21T03:30:52.949Z,20.00
2019-04-21T03:34:18.501Z,20.07
2019-04-21T03:39:45.547Z,20.27
2019-04-21T03:45:51.485Z,20.93
2019-04-21T03:49:04.887Z,18.37
2019-04-21T04:02:05.895Z,21.07
2019-04-21T04:05:36.357Z,18.00
2019-04-21T04:11:38.072Z,18.33
2019-04-21T04:14:46.158Z,20.67
2019-04-21T04:17:40.079Z,21.27
2019-04-21T04:20:51.205Z,21.17
2019-04-21T04:27:07.939Z,29.37
2019-04-21T04:30:19.747Z,26.03
2019-04-21T04:33:21.037Z,33.70
2019-04-21T04:43:08.615Z,28.93
2019-04-21T04:46:08.116Z,24.53
2019-04-21T04:49:24.028Z,33.07
2019-04-21T04:55:29.226Z,27.00
2019-04-21T05:01:46.610Z,28.30
2019-04-21T05:11:28.364Z,28.17
2019-04-21T05:14:11.619Z,32.13
2019-04-21T05:17:17.533Z,27.67
2019-04-21T05:23:11.747Z,29.53
2019-04-21T05:26:09.822Z,26.20
2019-04-21T05:29:20.514Z,32.30
2019-04-21T05:32:59.971Z,30.80
2019-04-21T05:36:12.937Z,36.03
2019-04-21T05:39:36.241Z,35.50
2019-04-21T05:42:39.930Z,32.23
2019-04-21T05:45:54.911Z,28.53
2019-04-21T05:48:59.776Z,29.63
2019-04-21T05:52:06.690Z,31.63
2019-04-21T05:55:16.657Z,29.50
2019-04-21T05:58:12.069Z,32.13
2019-04-21T06:04:48.190Z,30.47
2019-04-21T06:07:41.030Z,36.83
2019-04-21T06:10:50.841Z,27.27
2019-04-21T06:13:55.012Z,28.57
2019-04-21T06:17:01.505Z,25.73
2019-04-21T06:19:59.919Z,28.07
2019-04-21T06:23:14.809Z,33.93
2019-04-21T06:26:26.881Z,31.70
2019-04-21T06:29:24.024Z,31.43
2019-04-21T06:32:45.967Z,35.47
2019-04-21T06:36:20.094Z,34.57
2019-04-21T06:39:05.142Z,31.20
2019-04-21T06:42:05.312Z,35.07
2019-04-21T06:45:12.006Z,34.43
2019-04-21T06:48:18.450Z,51.67
2019-04-21T06:51:27.344Z,33.03
2019-04-21T06:57:35.525Z,38.20
2019-04-21T07:03:49.086Z,37.63
2019-04-21T07:06:54.720Z,39.33
2019-04-21T07:10:05.182Z,44.53
2019-04-21T07:13:03.644Z,49.47
2019-04-21T07:16:17.595Z,44.80
2019-04-21T07:19:22.119Z,41.60
2019-04-21T07:22:27.376Z,47.87
2019-04-21T07:25:33.230Z,40.73
2019-04-21T07:28:40.360Z,32.20
2019-04-21T07:31:47.129Z,33.63
2019-04-21T07:34:49.457Z,25.90
2019-04-21T07:37:54.139Z,24.13
2019-04-21T07:40:54.267Z,18.27
2019-04-21T07:43:57.100Z,19.70
2019-04-21T07:47:11.774Z,20.30
2019-04-21T07:50:24.142Z,13.87
2019-04-21T07:53:38.567Z,13.23
2019-04-21T07:56:24.428Z,13.87
2019-04-21T08:00:02.741Z,13.03
2019-04-21T08:02:51.176Z,11.60
2019-04-21T08:05:58.868Z,10.80
2019-04-21T08:09:01.074Z,10.93
2019-04-21T08:12:04.131Z,11.27
2019-04-21T08:15:24.957Z,10.77
2019-04-21T08:18:21.648Z,14.53
2019-04-21T08:21:28.289Z,11.30
2019-04-21T08:24:34.708Z,9.53
2019-04-21T08:27:41.690Z,8.37
2019-04-21T08:30:43.114Z,8.27
2019-04-21T08:33:58.388Z,12.17
2019-04-21T08:36:57.473Z,9.67
2019-04-21T08:43:09.341Z,10.83
2019-04-21T08:49:20.394Z,7.30
2019-04-21T08:52:36.237Z,8.07
2019-04-21T08:55:49.686Z,5.97
2019-04-21T08:59:13.853Z,6.07
2019-04-21T09:02:34.013Z,8.47
2019-04-21T09:05:32.109Z,6.23
2019-04-21T09:08:39.379Z,7.53
2019-04-21T09:11:40.523Z,11.47
2019-04-21T09:14:50.500Z,7.43
2019-04-21T09:17:50.238Z,4.17
2019-04-21T09:21:05.991Z,6.13
2019-04-21T09:24:11.443Z,5.73
2019-04-21T09:27:10.056Z,4.77
2019-04-21T09:30:04.888Z,3.43
2019-04-21T09:33:07.664Z,3.70
2019-04-21T09:36:15.241Z,3.13
2019-04-21T09:39:20.726Z,6.17
2019-04-21T09:42:33.298Z,4.17
2019-04-21T09:45:30.718Z,3.23
2019-04-21T09:48:46.612Z,3.47
2019-04-21T09:51:41.731Z,3.50
2019-04-21T09:54:56.461Z,7.03
2019-04-21T09:57:57.012Z,4.00
2019-04-21T10:01:10.797Z,3.60
2019-04-21T10:04:05.699Z,4.03
2019-04-21T10:07:23.616Z,3.13
2019-04-21T10:10:17.226Z,2.57
2019-04-21T10:13:21.625Z,2.67
2019-04-21T10:16:40.620Z,3.23
2019-04-21T10:19:46.254Z,3.43
2019-04-21T10:22:50.920Z,2.77
2019-04-21T10:25:56.711Z,5.70
2019-04-21T10:29:08.626Z,3.43
2019-04-21T10:32:07.135Z,3.57
2019-04-21T10:35:11.422Z,5.60
2019-04-21T10:38:25.923Z,3.17
2019-04-21T10:41:21.695Z,3.70
2019-04-21T10:44:27.231Z,3.50
2019-04-21T10:47:33.039Z,3.63
2019-04-21T10:50:37.444Z,3.37
2019-04-21T10:53:43.225Z,3.07
2019-04-21T10:56:49.042Z,4.77
2019-04-21T10:59:55.894Z,3.03
2019-04-21T11:03:19.161Z,2.70
2019-04-21T11:06:24.471Z,3.03
2019-04-21T11:09:29.838Z,2.87
2019-04-21T11:12:36.515Z,3.27
2019-04-21T11:15:41.225Z,4.80
2019-04-21T11:18:46.067Z,2.73
2019-04-21T11:21:50.516Z,3.47
2019-04-21T11:24:54.771Z,3.20
2019-04-21T11:27:59.161Z,3.70
2019-04-21T11:31:04.845Z,3.37
2019-04-21T11:34:09.303Z,2.17
2019-04-21T11:37:16.336Z,5.40
2019-04-21T11:40:22.122Z,4.33
2019-04-21T11:43:26.783Z,2.90
2019-04-21T11:46:31.084Z,2.47
2019-04-21T11:49:35.276Z,2.97
2019-04-21T11:52:40.806Z,1.40
2019-04-21T11:55:48.513Z,2.10
2019-04-21T11:58:51.900Z,1.93
2019-04-21T12:01:57.268Z,1.67
2019-04-21T12:05:01.751Z,2.63
2019-04-21T12:08:18.926Z,2.53
2019-04-21T12:11:11.999Z,3.03
2019-04-21T12:14:16.366Z,1.93
2019-04-21T12:17:20.740Z,2.10
2019-04-21T12:20:26.342Z,2.10
2019-04-21T12:23:32.431Z,3.50
2019-04-21T12:26:37.872Z,0.93
2019-04-21T12:29:43.913Z,1.37
2019-04-21T12:33:02.236Z,1.60
2019-04-21T12:36:06.999Z,2.07
2019-04-21T12:39:12.812Z,3.07
2019-04-21T12:42:18.542Z,1.13
2019-04-21T12:45:24.039Z,2.20
2019-04-21T12:48:29.680Z,0.93
2019-04-21T12:51:35.403Z,0.77
2019-04-21T12:54:39.921Z,3.77
2019-04-21T12:57:45.412Z,3.63
2019-04-21T13:00:51.968Z,3.93
2019-04-21T13:03:57.443Z,1.17
2019-04-21T13:07:03.564Z,1.00
2019-04-21T13:10:10.443Z,1.93
2019-04-21T13:13:14.874Z,1.67
2019-04-21T13:16:19.367Z,2.63
2019-04-21T13:19:23.717Z,1.30
2019-04-21T13:22:28.086Z,1.00
2019-04-21T13:25:32.364Z,3.90
2019-04-21T13:28:37.632Z,1.33
2019-04-21T13:31:42.546Z,2.03
2019-04-21T13:34:47.752Z,2.30
2019-04-21T13:37:52.421Z,13.63
2019-04-21T13:41:32.554Z,4.90
2019-04-21T13:44:26.864Z,4.97
2019-04-21T13:47:32.483Z,5.57
2019-04-21T13:50:37.337Z,2.17
2019-04-21T13:53:41.937Z,1.97
2019-04-21T13:56:47.268Z,1.63
2019-04-21T13:59:53.044Z,1.27
2019-04-21T14:02:58.750Z,1.73
2019-04-21T14:06:04.413Z,2.20
2019-04-21T14:09:13.692Z,2.50
2019-04-21T14:12:19.203Z,2.27
2019-04-21T14:15:24.215Z,1.30
2019-04-21T14:18:28.898Z,1.60
2019-04-21T14:21:33.754Z,2.20
2019-04-21T14:24:38.701Z,1.13
2019-04-21T14:27:45.785Z,1.10
2019-04-21T14:30:52.538Z,1.97
2019-04-21T14:33:58.085Z,1.23
2019-04-21T14:37:04.432Z,1.20
2019-04-21T14:40:14.085Z,1.93
2019-04-21T14:43:16.426Z,5.50
2019-04-21T14:46:39.441Z,4.97
2019-04-21T14:50:22.334Z,3.17
2019-04-21T14:53:29.676Z,1.53
2019-04-21T14:56:35.495Z,2.60
2019-04-21T14:59:40.059Z,2.93
2019-04-21T15:02:45.555Z,5.07
2019-04-21T15:05:51.434Z,3.73
2019-04-21T15:08:57.146Z,1.33
2019-04-21T15:12:02.476Z,2.23
2019-04-21T15:15:07.728Z,2.77
2019-04-21T15:18:12.552Z,3.30
2019-04-21T15:21:17.464Z,2.87
2019-04-21T15:24:22.452Z,1.43
2019-04-21T15:27:27.488Z,2.77
2019-04-21T15:30:36.550Z,3.97
2019-04-21T15:33:41.217Z,1.30
2019-04-21T15:36:46.232Z,3.70
2019-04-21T15:39:52.998Z,3.40
2019-04-21T15:42:57.762Z,7.63
2019-04-21T15:46:02.602Z,3.23
2019-04-21T15:49:07.091Z,1.47
2019-04-21T15:52:11.687Z,1.80
2019-04-21T15:55:34.932Z,5.50
2019-04-21T15:59:04.332Z,2.30
2019-04-21T16:02:26.622Z,3.80
2019-04-21T16:05:31.079Z,1.83
2019-04-21T16:08:35.410Z,3.17
2019-04-21T16:11:39.815Z,1.53
2019-04-21T16:14:44.749Z,4.83
2019-04-21T16:17:49.081Z,2.27
2019-04-21T16:20:53.695Z,4.07
2019-04-21T16:23:58.402Z,2.33
2019-04-21T16:27:06.434Z,3.13
2019-04-21T16:30:10.051Z,2.53
2019-04-21T16:33:15.888Z,2.27
2019-04-21T16:36:21.497Z,1.67
2019-04-21T16:39:27.263Z,2.37
2019-04-21T16:42:32.160Z,3.93
2019-04-21T16:45:37.048Z,2.30
2019-04-21T16:48:42.014Z,1.60
2019-04-21T16:51:48.236Z,2.20
2019-04-21T16:54:58.353Z,1.93
2019-04-21T16:58:23.928Z,3.30
2019-04-21T17:01:31.277Z,2.27
2019-04-21T17:04:36.327Z,2.73
2019-04-21T17:07:40.972Z,3.17
2019-04-21T17:10:59.188Z,2.37
2019-04-21T17:13:51.937Z,2.63
2019-04-21T17:17:18.089Z,4.73
2019-04-21T17:20:17.447Z,2.53
2019-04-21T17:23:09.521Z,3.80
2019-04-21T17:26:15.151Z,3.47
2019-04-21T17:29:20.909Z,2.97
2019-04-21T17:32:32.170Z,3.03
2019-04-21T17:35:33.226Z,4.83
2019-04-21T17:38:37.733Z,3.60
2019-04-21T17:41:56.279Z,4.93
2019-04-21T17:44:48.221Z,5.83
2019-04-21T17:47:59.740Z,4.37
2019-04-21T17:51:17.311Z,4.97
2019-04-21T17:54:36.549Z,5.20
2019-04-21T17:57:55.726Z,9.63
2019-04-21T18:01:10.802Z,9.27
2019-04-21T18:04:10.800Z,15.40
2019-04-21T18:07:18.990Z,10.30
2019-04-21T18:10:25.751Z,11.97
2019-04-21T18:13:19.512Z,13.53
2019-04-21T18:16:30.385Z,18.27
2019-04-21T18:19:30.982Z,19.00
2019-04-21T18:23:09.598Z,20.57
2019-04-21T18:26:24.710Z,30.33
2019-04-21T18:29:18.374Z,35.70
2019-04-21T18:32:26.373Z,44.87
2019-04-21T18:35:50.866Z,47.83
2019-04-21T18:39:32.517Z,58.33
2019-04-21T18:42:42.126Z,63.67
2019-04-21T18:46:21.961Z,80.43
2019-04-21T18:49:24.932Z,73.80
2019-04-21T18:52:48.349Z,71.67
2019-04-21T18:55:46.583Z,79.27
2019-04-21T18:58:46.650Z,71.37
2019-04-21T19:01:58.406Z,72.47
2019-04-21T19:05:04.449Z,67.33
2019-04-21T19:08:20.259Z,63.40
2019-04-21T19:11:31.201Z,66.10
2019-04-21T19:14:36.171Z,71.50
2019-04-21T19:20:56.967Z,81.00
2019-04-21T19:24:08.528Z,71.03
2019-04-21T19:27:08.015Z,77.30
2019-04-21T19:33:14.500Z,75.27
2019-04-21T19:36:07.627Z,63.90
2019-04-21T19:39:23.398Z,69.07
2019-04-21T19:42:30.667Z,63.00
2019-04-21T19:45:36.793Z,64.80
2019-04-21T19:48:55.287Z,58.27
2019-04-21T19:51:48.489Z,52.90
2019-04-21T19:54:48.317Z,57.20
2019-04-21T19:57:52.798Z,47.40
2019-04-21T20:00:57.597Z,59.70
2019-04-21T20:04:02.847Z,69.30
2019-04-21T20:07:22.901Z,88.73
2019-04-21T20:10:35.226Z,96.40
2019-04-21T20:13:59.821Z,123.50
2019-04-21T20:16:46.922Z,125.70
2019-04-21T20:19:34.069Z,105.00
2019-04-21T20:22:43.294Z,96.07
2019-04-21T20:25:49.858Z,80.83
2019-04-21T20:29:04.562Z,76.07
2019-04-21T20:32:28.952Z,77.77
2019-04-21T20:35:36.013Z,71.33
2019-04-21T20:38:27.132Z,59.93
2019-04-21T20:41:32.500Z,55.13
2019-04-21T20:44:42.559Z,53.07
2019-04-21T20:47:39.423Z,49.30
2019-04-21T20:51:00.337Z,49.83
2019-04-21T20:53:59.015Z,48.50
2019-04-21T20:57:21.712Z,41.90
2019-04-21T21:00:13.384Z,39.17
2019-04-21T21:03:24.632Z,38.90
2019-04-21T21:06:26.108Z,35.23
2019-04-21T21:09:29.328Z,36.43
2019-04-21T21:12:46.746Z,41.47
2019-04-21T21:15:52.602Z,37.17
2019-04-21T21:19:08.427Z,39.07
2019-04-21T21:21:53.968Z,40.53
2019-04-21T21:25:03.819Z,35.27
2019-04-21T21:28:03.419Z,32.70
2019-04-21T21:31:16.442Z,32.63
2019-04-21T21:34:28.095Z,34.27
2019-04-21T21:37:32.261Z,35.47
2019-04-21T21:40:29.969Z,35.80
2019-04-21T21:43:24.774Z,31.57
2019-04-21T21:46:44.179Z,30.77
2019-04-21T21:49:48.360Z,35.80
2019-04-21T21:52:52.467Z,37.53
2019-04-21T21:55:46.849Z,37.40
2019-04-21T21:58:51.967Z,38.10
2019-04-21T22:01:58.330Z,39.10
2019-04-21T22:05:09.471Z,42.83
2019-04-21T22:08:10.285Z,39.93
2019-04-21T22:11:15.864Z,39.50
2019-04-21T22:14:26.910Z,42.37
2019-04-21T22:17:41.705Z,43.77
2019-04-21T22:20:50.510Z,42.90
2019-04-21T22:23:49.872Z,43.30
2019-04-21T22:26:45.256Z,48.13
2019-04-21T22:29:56.525Z,43.97
2019-04-21T22:33:02.459Z,48.10
2019-04-21T22:36:18.177Z,49.73
2019-04-21T22:39:30.714Z,51.23
2019-04-21T22:42:22.406Z,47.23
2019-04-21T22:45:23.144Z,50.17
2019-04-21T22:48:28.885Z,47.67
2019-04-21T22:51:38.356Z,48.57
2019-04-21T22:54:42.768Z,44.73
2019-04-21T22:57:49.821Z,47.70
2019-04-21T23:00:57.118Z,49.03
2019-04-21T23:04:02.531Z,45.80
2019-04-21T23:07:10.055Z,47.23
2019-04-21T23:10:11.605Z,53.37
2019-04-21T23:13:20.258Z,47.53
2019-04-21T23:16:29.276Z,48.27
2019-04-21T23:19:42.276Z,46.07
2019-04-21T23:23:03.602Z,48.73
2019-04-21T23:25:53.115Z,48.40
2019-04-21T23:29:07.536Z,44.67
2019-04-21T23:32:10.705Z,43.40
2019-04-21T23:35:09.080Z,44.00
2019-04-21T23:38:06.901Z,46.97
2019-04-21T23:41:11.320Z,45.43
2019-04-21T23:44:19.022Z,43.63
2019-04-21T23:47:34.564Z,44.07
2019-04-21T23:50:37.859Z,40.27
2019-04-21T23:53:33.614Z,46.23
2019-04-21T23:56:42.560Z,43.97
2019-04-21T23:59:48.699Z,42.73
